createdAt,value
2023-05-21T00:00:41.837Z,94857.00
2023-05-21T00:01:41.866Z,94851.00
2023-05-21T00:02:41.924Z,94853.00
2023-05-21T00:03:42.054Z,94855.00
2023-05-21T00:04:41.832Z,94857.00
2023-05-21T00:05:41.841Z,94857.00
2023-05-21T00:06:41.787Z,94857.00
2023-05-21T00:07:41.801Z,94857.00
2023-05-21T00:08:41.800Z,94855.00
2023-05-21T00:09:41.794Z,94859.00
2023-05-21T00:10:41.787Z,94855.00
2023-05-21T00:11:41.791Z,94857.00
2023-05-21T00:12:42.008Z,94855.00
2023-05-21T00:13:41.744Z,94855.00
2023-05-21T00:14:41.771Z,94853.00
2023-05-21T00:15:41.724Z,94851.00
2023-05-21T00:16:41.742Z,94851.00
2023-05-21T00:17:41.833Z,94851.00
2023-05-21T00:18:41.732Z,94853.00
2023-05-21T00:19:41.710Z,94853.00
2023-05-21T00:20:41.751Z,94851.00
2023-05-21T00:21:41.685Z,94851.00
2023-05-21T00:22:41.699Z,94851.00
2023-05-21T00:23:41.679Z,94851.00
2023-05-21T00:24:41.690Z,94853.00
2023-05-21T00:25:41.690Z,94855.00
2023-05-21T00:26:41.621Z,94851.00
2023-05-21T00:27:41.628Z,94849.00
2023-05-21T00:28:41.677Z,94853.00
2023-05-21T00:29:44.161Z,94853.00
2023-05-21T00:30:41.649Z,94853.00
2023-05-21T00:31:41.694Z,94855.00
2023-05-21T00:32:41.663Z,94855.00
2023-05-21T00:33:41.613Z,94859.00
2023-05-21T00:34:41.584Z,94857.00
2023-05-21T00:35:41.609Z,94859.00
2023-05-21T00:36:41.575Z,94857.00
2023-05-21T00:37:41.613Z,94857.00
2023-05-21T00:38:41.568Z,94857.00
2023-05-21T00:39:41.512Z,94855.00
2023-05-21T00:40:41.584Z,94851.00
2023-05-21T00:41:41.569Z,94851.00
2023-05-21T00:42:41.601Z,94851.00
2023-05-21T00:43:41.538Z,94851.00
2023-05-21T00:44:41.507Z,94851.00
2023-05-21T00:45:41.576Z,94849.00
2023-05-21T00:46:41.512Z,94851.00
2023-05-21T00:47:41.504Z,94853.00
2023-05-21T00:48:41.473Z,94857.00
2023-05-21T00:49:42.076Z,94859.00
2023-05-21T00:50:41.486Z,94859.00
2023-05-21T00:51:41.479Z,94855.00
2023-05-21T00:52:41.455Z,94853.00
2023-05-21T00:53:41.499Z,94853.00
2023-05-21T00:54:41.450Z,94853.00
2023-05-21T00:55:41.483Z,94851.00
2023-05-21T00:56:41.443Z,94853.00
2023-05-21T00:57:41.443Z,94853.00
2023-05-21T00:58:41.418Z,94851.00
2023-05-21T00:59:41.410Z,94851.00
2023-05-21T01:00:41.413Z,94853.00
2023-05-21T01:01:41.473Z,94859.00
2023-05-21T01:02:41.447Z,94859.00
2023-05-21T01:03:41.487Z,94859.00
2023-05-21T01:04:41.416Z,94855.00
2023-05-21T01:05:41.437Z,94855.00
2023-05-21T01:06:41.393Z,94853.00
2023-05-21T01:07:41.374Z,94851.00
2023-05-21T01:08:41.364Z,94851.00
2023-05-21T01:09:41.327Z,94851.00
2023-05-21T01:10:41.369Z,94849.00
2023-05-21T01:11:41.332Z,94849.00
2023-05-21T01:12:41.322Z,94849.00
2023-05-21T01:13:41.416Z,94851.00
2023-05-21T01:14:41.294Z,94849.00
2023-05-21T01:15:41.361Z,94851.00
2023-05-21T01:16:41.367Z,94849.00
2023-05-21T01:17:41.329Z,94845.00
2023-05-21T01:18:41.354Z,94843.00
2023-05-21T01:19:41.303Z,94841.00
2023-05-21T01:20:41.284Z,94843.00
2023-05-21T01:21:41.286Z,94843.00
2023-05-21T01:22:41.274Z,94845.00
2023-05-21T01:23:41.261Z,94845.00
2023-05-21T01:24:41.214Z,94845.00
2023-05-21T01:25:41.283Z,94847.00
2023-05-21T01:26:41.233Z,94847.00
2023-05-21T01:27:41.226Z,94845.00
2023-05-21T01:28:41.196Z,94843.00
2023-05-21T01:29:41.240Z,94845.00
2023-05-21T01:30:41.311Z,94847.00
2023-05-21T01:31:41.311Z,94853.00
2023-05-21T01:32:41.398Z,94853.00
2023-05-21T01:33:41.402Z,94849.00
2023-05-21T01:34:41.372Z,94845.00
2023-05-21T01:35:41.431Z,94845.00
2023-05-21T01:36:41.542Z,94841.00
2023-05-21T01:37:41.565Z,94845.00
2023-05-21T01:38:41.625Z,94843.00
2023-05-21T01:39:41.691Z,94845.00
2023-05-21T01:40:41.801Z,94845.00
2023-05-21T01:41:41.782Z,94841.00
2023-05-21T01:42:41.841Z,94841.00
2023-05-21T01:43:41.930Z,94841.00
2023-05-21T01:44:41.923Z,94843.00
2023-05-21T01:45:41.983Z,94837.00
2023-05-21T01:46:42.042Z,94839.00
2023-05-21T01:47:42.072Z,94839.00
2023-05-21T01:48:42.071Z,94835.00
2023-05-21T01:49:42.092Z,94834.00
2023-05-21T01:50:42.108Z,94834.00
2023-05-21T01:51:42.131Z,94835.00
2023-05-21T01:52:42.126Z,94837.00
2023-05-21T01:53:42.146Z,94832.00
2023-05-21T01:54:42.147Z,94834.00
2023-05-21T01:55:42.266Z,94832.00
2023-05-21T01:56:42.195Z,94834.00
2023-05-21T01:57:42.207Z,94834.00
2023-05-21T01:58:42.218Z,94834.00
2023-05-21T01:59:42.279Z,94834.00
2023-05-21T02:00:42.285Z,94834.00
2023-05-21T02:01:42.326Z,94835.00
2023-05-21T02:02:42.388Z,94839.00
2023-05-21T02:03:42.434Z,94839.00
2023-05-21T02:04:42.325Z,94837.00
2023-05-21T02:05:42.354Z,94837.00
2023-05-21T02:06:42.386Z,94837.00
2023-05-21T02:07:42.432Z,94834.00
2023-05-21T02:08:42.445Z,94837.00
2023-05-21T02:09:42.508Z,94837.00
2023-05-21T02:10:42.544Z,94839.00
2023-05-21T02:11:42.562Z,94843.00
2023-05-21T02:12:42.642Z,94847.00
2023-05-21T02:13:42.742Z,94849.00
2023-05-21T02:14:42.738Z,94845.00
2023-05-21T02:15:42.751Z,94849.00
2023-05-21T02:16:42.800Z,94849.00
2023-05-21T02:17:42.853Z,94847.00
2023-05-21T02:18:42.909Z,94845.00
2023-05-21T02:19:42.936Z,94845.00
2023-05-21T02:20:42.919Z,94847.00
2023-05-21T02:21:42.995Z,94847.00
2023-05-21T02:22:43.009Z,94849.00
2023-05-21T02:23:43.116Z,94851.00
2023-05-21T02:24:43.121Z,94851.00
2023-05-21T02:25:43.222Z,94851.00
2023-05-21T02:26:43.225Z,94853.00
2023-05-21T02:27:43.309Z,94847.00
2023-05-21T02:28:43.354Z,94849.00
2023-05-21T02:29:43.386Z,94847.00
2023-05-21T02:30:43.424Z,94845.00
2023-05-21T02:31:43.489Z,94845.00
2023-05-21T02:32:43.627Z,94847.00
2023-05-21T02:33:43.611Z,94843.00
2023-05-21T02:34:43.669Z,94841.00
2023-05-21T02:35:43.761Z,94841.00
2023-05-21T02:36:43.735Z,94839.00
2023-05-21T02:37:43.901Z,94837.00
2023-05-21T02:38:43.985Z,94834.00
2023-05-21T02:39:43.926Z,94832.00
2023-05-21T02:40:43.979Z,94832.00
2023-05-21T02:41:44.004Z,94832.00
2023-05-21T02:42:44.067Z,94832.00
2023-05-21T02:43:44.118Z,94830.00
2023-05-21T02:44:44.169Z,94828.00
2023-05-21T02:45:44.286Z,94826.00
2023-05-21T02:46:44.294Z,94828.00
2023-05-21T02:47:44.514Z,94828.00
2023-05-21T02:48:44.420Z,94828.00
2023-05-21T02:49:44.505Z,94826.00
2023-05-21T02:50:44.551Z,94826.00
2023-05-21T02:51:44.566Z,94824.00
2023-05-21T02:52:44.614Z,94826.00
2023-05-21T02:53:44.684Z,94828.00
2023-05-21T02:54:44.758Z,94832.00
2023-05-21T02:55:44.841Z,94835.00
2023-05-21T02:56:45.886Z,94834.00
2023-05-21T02:57:44.899Z,94832.00
2023-05-21T02:58:44.980Z,94832.00
2023-05-21T02:59:45.024Z,94828.00
2023-05-21T03:00:45.088Z,94832.00
2023-05-21T03:01:45.346Z,94832.00
2023-05-21T03:02:45.311Z,94834.00
2023-05-21T03:03:45.377Z,94832.00
2023-05-21T03:04:45.306Z,94832.00
2023-05-21T03:05:45.421Z,94835.00
2023-05-21T03:06:45.490Z,94837.00
2023-05-21T03:07:45.518Z,94837.00
2023-05-21T03:08:45.592Z,94835.00
2023-05-21T03:09:45.616Z,94835.00
2023-05-21T03:10:45.680Z,94837.00
2023-05-21T03:11:45.695Z,94839.00
2023-05-21T03:12:45.682Z,94841.00
2023-05-21T03:13:45.786Z,94841.00
2023-05-21T03:14:45.775Z,94839.00
2023-05-21T03:15:45.821Z,94837.00
2023-05-21T03:16:45.951Z,94841.00
2023-05-21T03:17:45.858Z,94841.00
2023-05-21T03:18:45.871Z,94843.00
2023-05-21T03:19:45.920Z,94843.00
2023-05-21T03:20:45.917Z,94841.00
2023-05-21T03:21:45.912Z,94841.00
2023-05-21T03:22:45.933Z,94843.00
2023-05-21T03:23:45.951Z,94847.00
2023-05-21T03:24:45.932Z,94847.00
2023-05-21T03:25:46.029Z,94843.00
2023-05-21T03:26:45.962Z,94841.00
2023-05-21T03:27:45.928Z,94839.00
2023-05-21T03:28:45.941Z,94839.00
2023-05-21T03:29:45.982Z,94843.00
2023-05-21T03:30:45.969Z,94841.00
2023-05-21T03:31:45.999Z,94845.00
2023-05-21T03:32:46.036Z,94845.00
2023-05-21T03:33:45.961Z,94845.00
2023-05-21T03:34:45.989Z,94841.00
2023-05-21T03:35:45.984Z,94843.00
2023-05-21T03:36:45.935Z,94843.00
2023-05-21T03:37:45.958Z,94845.00
2023-05-21T03:38:45.965Z,94845.00
2023-05-21T03:39:45.983Z,94847.00
2023-05-21T03:40:46.006Z,94849.00
2023-05-21T03:41:46.012Z,94851.00
2023-05-21T03:42:46.010Z,94853.00
2023-05-21T03:43:46.034Z,94857.00
2023-05-21T03:44:46.102Z,94857.00
2023-05-21T03:45:46.101Z,94857.00
2023-05-21T03:46:46.093Z,94853.00
2023-05-21T03:47:46.115Z,94853.00
2023-05-21T03:48:46.149Z,94849.00
2023-05-21T03:49:46.091Z,94849.00
2023-05-21T03:50:46.144Z,94849.00
2023-05-21T03:51:46.078Z,94849.00
2023-05-21T03:52:46.159Z,94847.00
2023-05-21T03:53:46.129Z,94849.00
2023-05-21T03:54:46.174Z,94847.00
2023-05-21T03:55:46.162Z,94847.00
2023-05-21T03:56:46.133Z,94849.00
2023-05-21T03:57:46.164Z,94853.00
2023-05-21T03:58:46.154Z,94855.00
2023-05-21T03:59:46.206Z,94853.00
2023-05-21T04:00:46.216Z,94853.00
2023-05-21T04:01:46.338Z,94845.00
2023-05-21T04:02:46.430Z,94847.00
2023-05-21T04:03:46.566Z,94855.00
2023-05-21T04:04:46.496Z,94859.00
2023-05-21T04:05:46.505Z,94861.00
2023-05-21T04:06:46.513Z,94857.00
2023-05-21T04:07:46.539Z,94853.00
2023-05-21T04:08:46.629Z,94859.00
2023-05-21T04:09:46.685Z,94865.00
2023-05-21T04:10:46.759Z,94865.00
2023-05-21T04:11:46.751Z,94859.00
2023-05-21T04:12:46.821Z,94851.00
2023-05-21T04:13:46.816Z,94849.00
2023-05-21T04:14:46.819Z,94861.00
2023-05-21T04:15:47.014Z,94869.00
2023-05-21T04:16:47.017Z,94875.00
2023-05-21T04:17:47.625Z,94879.00
2023-05-21T04:18:47.185Z,94875.00
2023-05-21T04:19:47.100Z,94869.00
2023-05-21T04:20:47.161Z,94867.00
2023-05-21T04:21:47.186Z,94871.00
2023-05-21T04:22:47.244Z,94881.00
2023-05-21T04:23:47.222Z,94886.00
2023-05-21T04:24:47.213Z,94886.00
2023-05-21T04:25:47.254Z,94888.00
2023-05-21T04:26:47.258Z,94886.00
2023-05-21T04:27:47.291Z,94881.00
2023-05-21T04:28:47.324Z,94881.00
2023-05-21T04:29:48.989Z,94882.00
2023-05-21T04:30:47.352Z,94882.00
2023-05-21T04:31:47.411Z,94890.00
2023-05-21T04:32:47.333Z,94888.00
2023-05-21T04:33:47.328Z,94884.00
2023-05-21T04:34:47.354Z,94881.00
2023-05-21T04:35:47.442Z,94877.00
2023-05-21T04:36:47.293Z,94877.00
2023-05-21T04:37:47.286Z,94877.00
2023-05-21T04:38:47.276Z,94879.00
2023-05-21T04:39:47.338Z,94877.00
2023-05-21T04:40:47.237Z,94879.00
2023-05-21T04:41:47.326Z,94882.00
2023-05-21T04:42:47.222Z,94879.00
2023-05-21T04:43:47.208Z,94877.00
2023-05-21T04:44:47.235Z,94875.00
2023-05-21T04:45:47.263Z,94871.00
2023-05-21T04:46:47.272Z,94875.00
2023-05-21T04:47:47.223Z,94873.00
2023-05-21T04:48:47.188Z,94877.00
2023-05-21T04:49:47.182Z,94873.00
2023-05-21T04:50:47.213Z,94875.00
2023-05-21T04:51:47.164Z,94879.00
2023-05-21T04:52:47.156Z,94879.00
2023-05-21T04:53:47.157Z,94877.00
2023-05-21T04:54:47.162Z,94873.00
2023-05-21T04:55:47.172Z,94873.00
2023-05-21T04:56:47.160Z,94869.00
2023-05-21T04:57:47.134Z,94869.00
2023-05-21T04:58:47.141Z,94869.00
2023-05-21T04:59:47.117Z,94869.00
2023-05-21T05:00:47.366Z,94869.00
2023-05-21T05:01:47.075Z,94871.00
2023-05-21T05:02:47.209Z,94873.00
2023-05-21T05:03:47.102Z,94873.00
2023-05-21T05:04:47.084Z,94877.00
2023-05-21T05:05:47.106Z,94875.00
2023-05-21T05:06:47.082Z,94875.00
2023-05-21T05:07:47.067Z,94875.00
2023-05-21T05:08:47.020Z,94873.00
2023-05-21T05:09:47.050Z,94869.00
2023-05-21T05:10:47.044Z,94865.00
2023-05-21T05:11:47.023Z,94865.00
2023-05-21T05:12:47.058Z,94869.00
2023-05-21T05:13:47.030Z,94869.00
2023-05-21T05:14:47.034Z,94865.00
2023-05-21T05:15:49.363Z,94869.00
2023-05-21T05:16:47.063Z,94867.00
2023-05-21T05:17:47.043Z,94867.00
2023-05-21T05:18:47.032Z,94865.00
2023-05-21T05:19:46.962Z,94865.00
2023-05-21T05:20:47.015Z,94867.00
2023-05-21T05:21:46.981Z,94867.00
2023-05-21T05:22:47.301Z,94865.00
2023-05-21T05:23:46.957Z,94861.00
2023-05-21T05:24:46.944Z,94863.00
2023-05-21T05:25:46.940Z,94861.00
2023-05-21T05:26:46.917Z,94861.00
2023-05-21T05:27:46.954Z,94859.00
2023-05-21T05:28:46.909Z,94857.00
2023-05-21T05:29:46.928Z,94857.00
2023-05-21T05:30:47.028Z,94859.00
2023-05-21T05:31:46.902Z,94865.00
2023-05-21T05:32:46.980Z,94863.00
2023-05-21T05:33:46.899Z,94861.00
2023-05-21T05:34:46.896Z,94861.00
2023-05-21T05:35:46.918Z,94861.00
2023-05-21T05:36:46.878Z,94859.00
2023-05-21T05:37:46.882Z,94859.00
2023-05-21T05:38:46.882Z,94857.00
2023-05-21T05:39:46.827Z,94859.00
2023-05-21T05:40:46.858Z,94855.00
2023-05-21T05:41:46.852Z,94855.00
2023-05-21T05:42:46.810Z,94857.00
2023-05-21T05:43:46.833Z,94853.00
2023-05-21T05:44:46.845Z,94855.00
2023-05-21T05:45:46.849Z,94855.00
2023-05-21T05:46:46.889Z,94853.00
2023-05-21T05:47:46.854Z,94853.00
2023-05-21T05:48:46.823Z,94853.00
2023-05-21T05:49:46.752Z,94851.00
2023-05-21T05:50:46.772Z,94851.00
2023-05-21T05:51:46.777Z,94853.00
2023-05-21T05:52:46.779Z,94855.00
2023-05-21T05:53:46.765Z,94855.00
2023-05-21T05:54:46.720Z,94855.00
2023-05-21T05:55:46.729Z,94855.00
2023-05-21T05:56:46.744Z,94857.00
2023-05-21T05:57:46.745Z,94859.00
2023-05-21T05:58:46.710Z,94859.00
2023-05-21T05:59:46.724Z,94859.00
2023-05-21T06:00:46.740Z,94857.00
2023-05-21T06:01:46.747Z,94857.00
2023-05-21T06:02:46.803Z,94859.00
2023-05-21T06:03:46.790Z,94859.00
2023-05-21T06:04:46.741Z,94861.00
2023-05-21T06:05:46.808Z,94863.00
2023-05-21T06:06:46.767Z,94863.00
2023-05-21T06:07:46.793Z,94861.00
2023-05-21T06:08:46.815Z,94859.00
2023-05-21T06:09:46.864Z,94861.00
2023-05-21T06:10:46.891Z,94859.00
2023-05-21T06:11:46.921Z,94859.00
2023-05-21T06:12:46.945Z,94857.00
2023-05-21T06:13:46.954Z,94857.00
2023-05-21T06:14:46.924Z,94855.00
2023-05-21T06:15:46.965Z,94859.00
2023-05-21T06:16:46.955Z,94859.00
2023-05-21T06:17:47.048Z,94861.00
2023-05-21T06:18:47.110Z,94859.00
2023-05-21T06:19:47.125Z,94857.00
2023-05-21T06:20:47.185Z,94855.00
2023-05-21T06:21:47.238Z,94851.00
2023-05-21T06:22:47.264Z,94849.00
2023-05-21T06:23:47.325Z,94845.00
2023-05-21T06:24:47.361Z,94845.00
2023-05-21T06:25:47.420Z,94839.00
2023-05-21T06:26:47.402Z,94843.00
2023-05-21T06:27:47.481Z,94843.00
2023-05-21T06:28:47.493Z,94837.00
2023-05-21T06:29:47.496Z,94837.00
2023-05-21T06:30:47.567Z,94839.00
2023-05-21T06:31:47.566Z,94839.00
2023-05-21T06:32:47.635Z,94839.00
2023-05-21T06:33:47.692Z,94839.00
2023-05-21T06:34:47.577Z,94835.00
2023-05-21T06:35:47.592Z,94835.00
2023-05-21T06:36:47.620Z,94834.00
2023-05-21T06:37:47.607Z,94832.00
2023-05-21T06:38:47.617Z,94830.00
2023-05-21T06:39:47.661Z,94830.00
2023-05-21T06:40:47.668Z,94830.00
2023-05-21T06:41:47.693Z,94830.00
2023-05-21T06:42:47.689Z,94832.00
2023-05-21T06:43:47.677Z,94826.00
2023-05-21T06:44:47.756Z,94826.00
2023-05-21T06:45:47.804Z,94826.00
2023-05-21T06:46:47.772Z,94826.00
2023-05-21T06:47:47.865Z,94826.00
2023-05-21T06:48:47.783Z,94830.00
2023-05-21T06:49:47.838Z,94830.00
2023-05-21T06:50:47.836Z,94832.00
2023-05-21T06:51:47.813Z,94835.00
2023-05-21T06:52:47.832Z,94835.00
2023-05-21T06:53:47.858Z,94835.00
2023-05-21T06:54:47.910Z,94832.00
2023-05-21T06:55:47.939Z,94828.00
2023-05-21T06:56:47.941Z,94834.00
2023-05-21T06:57:47.947Z,94835.00
2023-05-21T06:58:47.939Z,94834.00
2023-05-21T06:59:47.963Z,94835.00
2023-05-21T07:00:48.033Z,94834.00
2023-05-21T07:01:48.050Z,94834.00
2023-05-21T07:02:48.125Z,94834.00
2023-05-21T07:03:48.078Z,94832.00
2023-05-21T07:04:48.078Z,94835.00
2023-05-21T07:05:48.052Z,94834.00
2023-05-21T07:06:48.084Z,94834.00
2023-05-21T07:07:48.108Z,94830.00
2023-05-21T07:08:48.177Z,94832.00
2023-05-21T07:09:48.230Z,94832.00
2023-05-21T07:10:48.225Z,94828.00
2023-05-21T07:11:48.255Z,94828.00
2023-05-21T07:12:48.331Z,94830.00
2023-05-21T07:13:48.412Z,94826.00
2023-05-21T07:14:48.475Z,94830.00
2023-05-21T07:15:48.580Z,94832.00
2023-05-21T07:16:48.652Z,94828.00
2023-05-21T07:17:48.785Z,94828.00
2023-05-21T07:18:48.769Z,94826.00
2023-05-21T07:19:48.806Z,94828.00
2023-05-21T07:20:48.859Z,94826.00
2023-05-21T07:21:48.881Z,94826.00
2023-05-21T07:22:48.885Z,94822.00
2023-05-21T07:23:48.942Z,94822.00
2023-05-21T07:24:48.949Z,94816.00
2023-05-21T07:25:48.960Z,94816.00
2023-05-21T07:26:48.913Z,94818.00
2023-05-21T07:27:48.924Z,94816.00
2023-05-21T07:28:48.984Z,94812.00
2023-05-21T07:29:48.982Z,94814.00
2023-05-21T07:30:49.039Z,94812.00
2023-05-21T07:31:49.085Z,94808.00
2023-05-21T07:32:49.174Z,94806.00
2023-05-21T07:33:49.192Z,94802.00
2023-05-21T07:34:49.232Z,94798.00
2023-05-21T07:35:49.332Z,94804.00
2023-05-21T07:36:49.345Z,94806.00
2023-05-21T07:37:49.403Z,94806.00
2023-05-21T07:38:49.453Z,94806.00
2023-05-21T07:39:50.117Z,94802.00
2023-05-21T07:40:49.556Z,94802.00
2023-05-21T07:41:49.581Z,94802.00
2023-05-21T07:42:49.595Z,94798.00
2023-05-21T07:43:49.591Z,94796.00
2023-05-21T07:44:49.612Z,94795.00
2023-05-21T07:45:49.638Z,94789.00
2023-05-21T07:46:49.727Z,94791.00
2023-05-21T07:47:49.685Z,94791.00
2023-05-21T07:48:49.673Z,94795.00
2023-05-21T07:49:49.722Z,94795.00
2023-05-21T07:50:49.679Z,94798.00
2023-05-21T07:51:49.712Z,94796.00
2023-05-21T07:52:49.714Z,94796.00
2023-05-21T07:53:49.696Z,94795.00
2023-05-21T07:54:49.720Z,94795.00
2023-05-21T07:55:49.747Z,94783.00
2023-05-21T07:56:49.694Z,94781.00
2023-05-21T07:57:49.847Z,94777.00
2023-05-21T07:58:49.859Z,94779.00
2023-05-21T07:59:49.924Z,94779.00
2023-05-21T08:00:49.962Z,94775.00
2023-05-21T08:01:50.031Z,94775.00
2023-05-21T08:02:50.172Z,94775.00
2023-05-21T08:03:50.230Z,94775.00
2023-05-21T08:04:50.144Z,94777.00
2023-05-21T08:05:50.181Z,94775.00
2023-05-21T08:06:50.207Z,94777.00
2023-05-21T08:07:50.254Z,94775.00
2023-05-21T08:08:50.281Z,94773.00
2023-05-21T08:09:50.302Z,94775.00
2023-05-21T08:10:50.430Z,94773.00
2023-05-21T08:11:50.376Z,94771.00
2023-05-21T08:12:50.409Z,94775.00
2023-05-21T08:13:50.390Z,94773.00
2023-05-21T08:14:50.465Z,94773.00
2023-05-21T08:15:52.926Z,94769.00
2023-05-21T08:16:50.482Z,94771.00
2023-05-21T08:17:50.417Z,94769.00
2023-05-21T08:18:50.389Z,94771.00
2023-05-21T08:19:50.391Z,94771.00
2023-05-21T08:20:50.400Z,94771.00
2023-05-21T08:21:58.017Z,94771.00
2023-05-21T08:22:50.347Z,94769.00
2023-05-21T08:23:50.356Z,94773.00
2023-05-21T08:24:50.373Z,94769.00
2023-05-21T08:25:50.376Z,94775.00
2023-05-21T08:26:50.323Z,94771.00
2023-05-21T08:27:52.308Z,94763.00
2023-05-21T08:28:50.341Z,94765.00
2023-05-21T08:29:50.318Z,94761.00
2023-05-21T08:30:50.331Z,94761.00
2023-05-21T08:31:50.362Z,94757.00
2023-05-21T08:32:50.390Z,94751.00
2023-05-21T08:33:50.312Z,94751.00
2023-05-21T08:34:50.372Z,94747.00
2023-05-21T08:35:50.334Z,94747.00
2023-05-21T08:36:50.348Z,94749.00
2023-05-21T08:37:50.347Z,94747.00
2023-05-21T08:38:50.359Z,94751.00
2023-05-21T08:39:50.368Z,94751.00
2023-05-21T08:40:50.402Z,94753.00
2023-05-21T08:41:50.416Z,94749.00
2023-05-21T08:42:50.390Z,94747.00
2023-05-21T08:43:50.847Z,94749.00
2023-05-21T08:44:50.392Z,94749.00
2023-05-21T08:45:50.486Z,94743.00
2023-05-21T08:46:50.426Z,94743.00
2023-05-21T08:47:50.495Z,94740.00
2023-05-21T08:48:50.495Z,94740.00
2023-05-21T08:49:50.564Z,94741.00
2023-05-21T08:50:50.648Z,94743.00
2023-05-21T08:51:50.657Z,94741.00
2023-05-21T08:52:50.694Z,94740.00
2023-05-21T08:53:50.755Z,94738.00
2023-05-21T08:54:50.780Z,94736.00
2023-05-21T08:55:51.707Z,94734.00
2023-05-21T08:56:50.801Z,94736.00
2023-05-21T08:57:50.847Z,94736.00
2023-05-21T08:58:50.929Z,94736.00
2023-05-21T08:59:50.910Z,94740.00
2023-05-21T09:00:51.034Z,94736.00
2023-05-21T09:01:51.050Z,94734.00
2023-05-21T09:02:51.017Z,94732.00
2023-05-21T09:03:51.077Z,94734.00
2023-05-21T09:04:50.991Z,94732.00
2023-05-21T09:05:51.117Z,94734.00
2023-05-21T09:06:51.097Z,94732.00
2023-05-21T09:07:52.500Z,94728.00
2023-05-21T09:08:51.126Z,94730.00
2023-05-21T09:09:51.159Z,94732.00
2023-05-21T09:10:59.301Z,94728.00
2023-05-21T09:11:51.477Z,94730.00
2023-05-21T09:12:51.297Z,94730.00
2023-05-21T09:13:51.307Z,94730.00
2023-05-21T09:14:51.269Z,94730.00
2023-05-21T09:15:51.359Z,94730.00
2023-05-21T09:16:51.299Z,94730.00
2023-05-21T09:17:51.311Z,94728.00
2023-05-21T09:18:51.341Z,94730.00
2023-05-21T09:19:51.245Z,94728.00
2023-05-21T09:20:51.218Z,94730.00
2023-05-21T09:21:51.422Z,94734.00
2023-05-21T09:22:51.684Z,94732.00
2023-05-21T09:23:52.157Z,94734.00
2023-05-21T09:24:51.130Z,94736.00
2023-05-21T09:25:51.107Z,94732.00
2023-05-21T09:26:51.131Z,94730.00
2023-05-21T09:27:51.171Z,94732.00
2023-05-21T09:28:51.215Z,94734.00
2023-05-21T09:29:51.263Z,94734.00
2023-05-21T09:30:51.282Z,94730.00
2023-05-21T09:31:51.375Z,94724.00
2023-05-21T09:32:51.409Z,94726.00
2023-05-21T09:33:51.466Z,94734.00
2023-05-21T09:34:51.465Z,94741.00
2023-05-21T09:35:51.512Z,94736.00
2023-05-21T09:36:51.576Z,94740.00
2023-05-21T09:37:51.579Z,94726.00
2023-05-21T09:38:51.662Z,94734.00
2023-05-21T09:39:51.653Z,94741.00
2023-05-21T09:40:51.745Z,94741.00
2023-05-21T09:41:51.717Z,94747.00
2023-05-21T09:42:51.806Z,94743.00
2023-05-21T09:43:51.836Z,94749.00
2023-05-21T09:44:51.816Z,94747.00
2023-05-21T09:45:51.956Z,94743.00
2023-05-21T09:46:51.925Z,94749.00
2023-05-21T09:47:52.035Z,94736.00
2023-05-21T09:48:51.976Z,94736.00
2023-05-21T09:49:52.018Z,94734.00
2023-05-21T09:50:52.096Z,94732.00
2023-05-21T09:51:52.128Z,94734.00
2023-05-21T09:52:52.648Z,94730.00
2023-05-21T09:53:52.164Z,94730.00
2023-05-21T09:54:52.156Z,94730.00
2023-05-21T09:55:52.248Z,94728.00
2023-05-21T09:56:52.291Z,94734.00
2023-05-21T09:57:52.291Z,94736.00
2023-05-21T09:58:52.338Z,94732.00
2023-05-21T09:59:52.348Z,94730.00
2023-05-21T10:00:52.369Z,94728.00
2023-05-21T10:01:52.502Z,94738.00
2023-05-21T10:02:52.445Z,94732.00
2023-05-21T10:03:52.519Z,94728.00
2023-05-21T10:04:52.538Z,94738.00
2023-05-21T10:05:52.546Z,94738.00
2023-05-21T10:06:52.595Z,94732.00
2023-05-21T10:07:52.633Z,94734.00
2023-05-21T10:08:52.619Z,94736.00
2023-05-21T10:09:52.681Z,94732.00
2023-05-21T10:10:52.736Z,94730.00
2023-05-21T10:11:52.742Z,94730.00
2023-05-21T10:12:52.739Z,94726.00
2023-05-21T10:13:52.745Z,94728.00
2023-05-21T10:14:52.895Z,94726.00
2023-05-21T10:15:52.944Z,94722.00
2023-05-21T10:16:52.981Z,94720.00
2023-05-21T10:17:53.001Z,94724.00
2023-05-21T10:18:53.074Z,94718.00
2023-05-21T10:19:53.050Z,94724.00
2023-05-21T10:20:53.077Z,94740.00
2023-05-21T10:21:53.149Z,94738.00
2023-05-21T10:22:53.168Z,94724.00
2023-05-21T10:23:53.184Z,94722.00
2023-05-21T10:24:53.173Z,94720.00
2023-05-21T10:25:53.259Z,94714.00
2023-05-21T10:26:53.245Z,94722.00
2023-05-21T10:27:53.366Z,94734.00
2023-05-21T10:28:53.364Z,94716.00
2023-05-21T10:29:53.382Z,94712.00
2023-05-21T10:30:53.408Z,94716.00
2023-05-21T10:31:53.528Z,94710.00
2023-05-21T10:32:53.639Z,94712.00
2023-05-21T10:33:53.493Z,94714.00
2023-05-21T10:34:53.582Z,94710.00
2023-05-21T10:35:53.578Z,94712.00
2023-05-21T10:36:53.608Z,94701.00
2023-05-21T10:37:53.611Z,94706.00
2023-05-21T10:38:53.681Z,94699.00
2023-05-21T10:39:53.705Z,94702.00
2023-05-21T10:40:53.709Z,94702.00
2023-05-21T10:41:54.776Z,94695.00
2023-05-21T10:42:53.819Z,94695.00
2023-05-21T10:43:53.841Z,94695.00
2023-05-21T10:44:54.994Z,94697.00
2023-05-21T10:45:53.924Z,94691.00
2023-05-21T10:46:53.911Z,94706.00
2023-05-21T10:47:54.549Z,94697.00
2023-05-21T10:48:53.959Z,94695.00
2023-05-21T10:49:54.022Z,94687.00
2023-05-21T10:50:54.024Z,94691.00
2023-05-21T10:51:54.112Z,94689.00
2023-05-21T10:52:54.094Z,94689.00
2023-05-21T10:53:54.104Z,94687.00
2023-05-21T10:54:54.208Z,94689.00
2023-05-21T10:55:54.219Z,94685.00
2023-05-21T10:56:54.281Z,94689.00
2023-05-21T10:57:54.241Z,94689.00
2023-05-21T10:58:54.259Z,94685.00
2023-05-21T10:59:54.297Z,94685.00
2023-05-21T11:00:54.359Z,94677.00
2023-05-21T11:01:54.367Z,94685.00
2023-05-21T11:02:54.475Z,94683.00
2023-05-21T11:03:54.460Z,94685.00
2023-05-21T11:04:54.427Z,94675.00
2023-05-21T11:05:54.493Z,94675.00
2023-05-21T11:06:54.554Z,94675.00
2023-05-21T11:07:54.601Z,94681.00
2023-05-21T11:08:55.708Z,94683.00
2023-05-21T11:09:54.732Z,94687.00
2023-05-21T11:10:54.752Z,94677.00
2023-05-21T11:11:54.766Z,94681.00
2023-05-21T11:12:54.788Z,94681.00
2023-05-21T11:13:54.840Z,94679.00
2023-05-21T11:14:54.857Z,94675.00
2023-05-21T11:15:54.916Z,94675.00
2023-05-21T11:16:54.975Z,94685.00
2023-05-21T11:17:55.073Z,94681.00
2023-05-21T11:18:55.119Z,94677.00
2023-05-21T11:19:55.040Z,94679.00
2023-05-21T11:20:55.106Z,94677.00
2023-05-21T11:21:55.103Z,94683.00
2023-05-21T11:22:55.106Z,94677.00
2023-05-21T11:23:55.142Z,94681.00
2023-05-21T11:24:55.164Z,94681.00
2023-05-21T11:25:55.253Z,94681.00
2023-05-21T11:26:55.198Z,94677.00
2023-05-21T11:27:55.256Z,94677.00
2023-05-21T11:28:55.271Z,94681.00
2023-05-21T11:29:55.311Z,94679.00
2023-05-21T11:30:55.403Z,94681.00
2023-05-21T11:31:55.442Z,94681.00
2023-05-21T11:32:55.483Z,94675.00
2023-05-21T11:33:55.501Z,94681.00
2023-05-21T11:34:55.531Z,94679.00
2023-05-21T11:35:55.587Z,94683.00
2023-05-21T11:36:55.564Z,94677.00
2023-05-21T11:37:55.570Z,94677.00
2023-05-21T11:38:55.628Z,94673.00
2023-05-21T11:39:55.651Z,94675.00
2023-05-21T11:40:55.838Z,94675.00
2023-05-21T11:41:55.761Z,94677.00
2023-05-21T11:42:55.874Z,94673.00
2023-05-21T11:43:55.769Z,94669.00
2023-05-21T11:44:55.779Z,94669.00